Time;durP1;ratioP1;P1;durP2;ratioP2;P2;SDS_P1;SDS_P2;PMS_P1;PMS_P2;Temp;Humidity;BMP_temperature;BMP_pressure;BME280_temperature;BME280_humidity;BME280_pressure;Samples;Min_cycle;Max_cycle;Signal;HPM_P1;HPM_P2
2021/12/14 00:02:18;;;;;;;;;35.00;30.00;;;;;9.68;71.56;102508.88;5027552;28;45338;-57
2021/12/14 00:04:44;;;;;;;;;39.25;28.75;;;;;9.63;71.94;102507.25;5038252;28;45252;-53
2021/12/14 00:07:16;;;;;;;;;19.00;15.25;;;;;9.57;72.06;102505.69;5039954;28;45469;-56
2021/12/14 00:09:43;;;;;;;;;20.75;20.25;;;;;9.56;71.68;102503.06;5036887;28;45370;-59
2021/12/14 00:12:53;;;;;;;;;17.50;12.25;;;;;9.51;72.23;102493.53;5026813;28;46237;-60
2021/12/14 00:15:18;;;;;;;;;37.25;26.50;;;;;9.49;71.89;102491.88;5032250;28;45444;-59
2021/12/14 00:17:49;;;;;;;;;31.50;25.50;;;;;9.48;72.11;102491.00;5028037;28;45403;-56
2021/12/14 00:20:22;;;;;;;;;29.25;24.75;;;;;9.48;71.96;102498.03;5025217;28;45685;-51
2021/12/14 00:25:36;;;;;;;;;22.50;18.50;;;;;9.43;72.28;102519.19;5026232;28;45503;-53
2021/12/14 00:28:09;;;;;;;;;23.00;21.50;;;;;9.37;72.47;102526.38;5024906;28;45399;-53
2021/12/14 00:30:36;;;;;;;;;25.25;20.25;;;;;9.33;71.86;102511.59;5027914;28;45500;-54
2021/12/14 00:33:06;;;;;;;;;20.75;17.00;;;;;9.29;72.30;102499.41;5026508;28;45566;-54
2021/12/14 00:35:34;;;;;;;;;24.75;19.00;;;;;9.29;72.31;102495.00;5025055;28;45430;-55
2021/12/14 00:38:01;;;;;;;;;19.00;17.00;;;;;9.30;72.24;102498.50;5024249;28;45340;-55
2021/12/14 00:40:35;;;;;;;;;22.00;17.75;;;;;9.27;72.41;102509.09;5028144;28;45655;-54
2021/12/14 00:43:01;;;;;;;;;20.00;15.50;;;;;9.26;72.71;102502.13;5022893;28;45547;-50
2021/12/14 00:45:31;;;;;;;;;24.75;19.00;;;;;9.23;72.73;102490.75;5025647;28;46345;-51
2021/12/14 00:47:58;;;;;;;;;25.00;23.50;;;;;9.21;72.54;102491.69;5032173;28;45380;-51
2021/12/14 00:50:29;;;;;;;;;29.00;21.75;;;;;9.22;72.84;102496.91;5032826;28;45386;-54
2021/12/14 00:52:55;;;;;;;;;13.25;11.50;;;;;9.20;72.60;102501.38;5031667;28;46306;-52
2021/12/14 00:55:30;;;;;;;;;24.00;20.25;;;;;9.22;73.03;102502.19;5028269;28;45409;-54
2021/12/14 00:57:56;;;;;;;;;17.25;14.50;;;;;9.23;72.95;102498.66;5030214;28;45423;-54
2021/12/14 01:00:25;;;;;;;;;18.75;17.75;;;;;9.17;72.53;102506.72;5047220;28;45501;-50
2021/12/14 01:02:51;;;;;;;;;19.00;17.50;;;;;9.11;72.70;102506.84;5031148;28;46234;-51
2021/12/14 01:05:24;;;;;;;;;18.25;13.25;;;;;9.10;72.82;102507.75;5029647;28;45480;-54
2021/12/14 01:07:50;;;;;;;;;25.25;19.00;;;;;9.10;73.01;102512.16;5029050;28;45499;-52
2021/12/14 01:10:33;;;;;;;;;15.75;12.00;;;;;9.05;72.35;102514.88;5028877;28;45728;-51
2021/12/14 01:13:04;;;;;;;;;14.75;12.25;;;;;8.99;72.12;102517.66;5026952;28;45878;-53
2021/12/14 01:16:15;;;;;;;;;16.50;13.75;;;;;8.97;72.62;102506.31;5026709;28;45565;-53
2021/12/14 01:21:45;;;;;;;;;13.50;13.25;;;;;9.03;72.76;102534.25;5027903;28;45701;-53
2021/12/14 01:24:24;;;;;;;;;17.00;13.25;;;;;9.02;72.77;102540.41;5025902;28;45443;-52
2021/12/14 01:26:51;;;;;;;;;14.00;12.50;;;;;9.02;72.51;102527.25;5029648;28;45550;-51
2021/12/14 01:29:18;;;;;;;;;14.00;13.75;;;;;8.98;73.12;102533.47;5030320;28;45455;-54
2021/12/14 01:31:47;;;;;;;;;18.50;15.00;;;;;8.95;72.64;102537.03;5030837;28;45403;-54
2021/12/14 01:34:19;;;;;;;;;18.25;16.00;;;;;8.96;72.93;102546.66;5027842;28;45682;-51
2021/12/14 01:36:50;;;;;;;;;15.75;13.50;;;;;8.95;73.05;102555.44;5029586;28;45815;-53
2021/12/14 01:41:59;;;;;;;;;12.50;11.50;;;;;8.96;72.99;102570.31;5030656;28;45829;-50
2021/12/14 01:44:28;;;;;;;;;12.75;12.00;;;;;8.96;73.42;102567.69;5030316;28;46064;-51
2021/12/14 01:47:01;;;;;;;;;12.75;12.50;;;;;8.93;73.08;102562.50;5029156;28;45672;-50
2021/12/14 01:49:29;;;;;;;;;21.00;16.00;;;;;8.91;72.76;102565.16;5028553;28;45371;-51
2021/12/14 01:51:59;;;;;;;;;16.75;11.50;;;;;8.91;73.02;102572.16;5030756;28;45568;-53
2021/12/14 01:54:34;;;;;;;;;14.50;14.50;;;;;8.89;73.06;102569.59;5030873;28;45473;-53
2021/12/14 01:57:07;;;;;;;;;13.75;11.00;;;;;8.91;73.00;102587.94;5028053;28;45680;-51
2021/12/14 01:59:38;;;;;;;;;14.75;12.50;;;;;8.87;72.94;102592.41;5029678;28;45496;-54
2021/12/14 02:02:20;;;;;;;;;16.50;14.00;;;;;8.88;72.84;102603.78;5031143;28;45751;-52
2021/12/14 02:04:53;;;;;;;;;13.75;12.00;;;;;8.88;72.91;102604.66;5027313;28;46313;-53
2021/12/14 02:07:20;;;;;;;;;13.00;10.75;;;;;8.84;72.66;102613.47;5029902;28;45505;-54
2021/12/14 02:09:51;;;;;;;;;11.50;11.50;;;;;8.79;72.83;102611.88;5028717;28;45501;-54
2021/12/14 02:12:20;;;;;;;;;12.00;8.75;;;;;8.76;73.01;102625.94;5031261;28;45616;-55
2021/12/14 02:14:47;;;;;;;;;15.75;11.75;;;;;8.76;73.45;102628.56;5028344;28;45494;-55
2021/12/14 02:17:16;;;;;;;;;13.50;12.25;;;;;8.76;73.27;102628.56;5030511;28;45461;-52
2021/12/14 02:19:42;;;;;;;;;19.75;12.75;;;;;8.78;73.46;102618.03;5028033;28;45444;-54
2021/12/14 02:22:09;;;;;;;;;15.75;11.00;;;;;8.83;73.41;102610.91;5029729;28;45852;-55
2021/12/14 02:24:37;;;;;;;;;15.25;13.25;;;;;8.85;73.68;102601.25;5029020;28;46262;-54
2021/12/14 02:27:04;;;;;;;;;13.00;13.00;;;;;8.86;73.29;102595.94;5028708;28;45779;-55
2021/12/14 02:29:34;;;;;;;;;17.50;12.75;;;;;8.89;73.63;102585.34;5027892;28;45579;-52
2021/12/14 02:32:07;;;;;;;;;13.50;13.50;;;;;8.98;73.85;102575.53;5030771;28;45482;-53
2021/12/14 02:34:54;;;;;;;;;13.50;12.00;;;;;9.02;73.43;102571.94;5028010;28;45505;-52
2021/12/14 02:37:34;;;;;;;;;18.00;15.50;;;;;9.03;73.70;102574.53;5027043;28;45451;-53
2021/12/14 02:40:13;;;;;;;;;25.25;13.25;;;;;9.01;73.47;102565.81;5028337;28;45394;-52
2021/12/14 02:42:39;;;;;;;;;17.50;13.50;;;;;8.99;73.64;102578.09;5030470;28;45526;-53
2021/12/14 02:45:05;;;;;;;;;19.50;13.00;;;;;8.98;73.63;102576.38;5030260;28;45518;-52
2021/12/14 02:47:30;;;;;;;;;16.50;12.75;;;;;8.98;73.93;102571.13;5028827;28;45589;-51
2021/12/14 02:49:56;;;;;;;;;12.75;12.50;;;;;9.00;73.50;102577.22;5028427;28;45345;-52
2021/12/14 02:52:37;;;;;;;;;19.00;14.50;;;;;9.01;73.21;102567.59;5028638;28;45446;-53
2021/12/14 02:55:10;;;;;;;;;17.00;13.75;;;;;9.03;73.56;102571.91;5030308;28;45800;-54
2021/12/14 02:57:38;;;;;;;;;13.00;11.50;;;;;9.05;73.54;102567.47;5030014;28;45308;-53
2021/12/14 03:00:21;;;;;;;;;20.00;16.25;;;;;9.04;73.61;102551.72;5026965;28;45574;-54
2021/12/14 03:02:47;;;;;;;;;16.50;14.50;;;;;9.03;73.21;102545.63;5028308;28;45407;-52
2021/12/14 03:05:22;;;;;;;;;16.50;13.25;;;;;9.06;73.27;102542.03;5027601;28;46422;-51
2021/12/14 03:08:08;;;;;;;;;13.00;13.00;;;;;9.08;73.36;102534.97;5026785;28;45530;-51
2021/12/14 03:10:52;;;;;;;;;14.00;12.00;;;;;9.13;73.21;102541.00;5026860;28;45514;-51
2021/12/14 03:13:18;;;;;;;;;20.75;15.75;;;;;9.14;72.95;102543.56;5027665;28;45500;-52
2021/12/14 03:15:52;;;;;;;;;16.50;16.00;;;;;9.12;72.93;102542.75;5028061;28;46332;-53
2021/12/14 03:18:39;;;;;;;;;17.00;12.75;;;;;9.09;72.99;102539.34;5028419;28;45439;-53
2021/12/14 03:21:10;;;;;;;;;16.25;11.25;;;;;9.03;72.67;102548.25;5027889;28;45510;-54
2021/12/14 03:23:43;;;;;;;;;16.25;11.75;;;;;9.00;72.85;102540.41;5028576;28;45532;-50
2021/12/14 03:26:13;;;;;;;;;17.00;13.00;;;;;9.01;73.02;102546.56;5025362;28;45383;-51
2021/12/14 03:28:40;;;;;;;;;20.50;15.00;;;;;9.01;72.63;102541.31;5029791;28;45799;-53
2021/12/14 03:31:11;;;;;;;;;14.75;12.00;;;;;9.00;72.73;102542.19;5028717;28;45696;-49
2021/12/14 03:33:49;;;;;;;;;14.75;12.50;;;;;8.99;72.79;102541.31;5028104;28;45471;-49
2021/12/14 03:36:26;;;;;;;;;15.25;10.75;;;;;9.02;73.09;102537.78;5026276;28;46427;-50
2021/12/14 03:39:29;;;;;;;;;20.25;17.25;;;;;9.05;72.55;102522.78;5029431;28;45472;-52
2021/12/14 03:41:59;;;;;;;;;16.00;15.00;;;;;9.08;72.11;102527.09;5013134;28;45516;-50
2021/12/14 03:44:36;;;;;;;;;12.00;11.00;;;;;9.05;72.24;102529.78;5026484;28;45639;-49
2021/12/14 03:47:20;;;;;;;;;21.25;16.00;;;;;9.02;72.73;102530.75;5025557;28;45793;-52
2021/12/14 03:49:48;;;;;;;;;12.50;11.50;;;;;9.04;72.89;102535.97;5025589;28;45578;-54
2021/12/14 03:52:19;;;;;;;;;18.00;15.50;;;;;9.08;72.79;102524.44;5029554;28;45624;-53
2021/12/14 03:54:44;;;;;;;;;18.50;13.75;;;;;9.08;72.55;102522.69;5024721;28;45594;-51
2021/12/14 03:57:10;;;;;;;;;19.25;12.25;;;;;9.09;72.83;102513.06;5028094;28;45346;-52
2021/12/14 03:59:37;;;;;;;;;17.50;16.50;;;;;9.09;72.33;102507.81;5027561;28;45777;-54
2021/12/14 04:02:06;;;;;;;;;15.25;13.00;;;;;9.08;72.68;102492.91;5027458;28;45458;-55
2021/12/14 04:04:36;;;;;;;;;22.25;13.75;;;;;9.06;72.35;102510.50;5029601;28;45451;-54
2021/12/14 04:07:06;;;;;;;;;13.75;12.00;;;;;9.04;72.91;102504.41;5026067;28;46344;-53
2021/12/14 04:09:35;;;;;;;;;18.00;16.75;;;;;9.05;73.00;102504.38;5027019;28;45632;-51
2021/12/14 04:12:02;;;;;;;;;15.25;13.00;;;;;9.05;72.60;102508.75;5027104;28;45733;-55
2021/12/14 04:14:30;;;;;;;;;25.50;17.00;;;;;9.06;73.03;102518.38;5027213;28;45959;-54
2021/12/14 04:16:59;;;;;;;;;17.25;15.00;;;;;9.04;72.68;102530.69;5029379;28;45443;-51
2021/12/14 04:19:28;;;;;;;;;17.50;16.75;;;;;9.05;73.05;102527.16;5025571;28;45441;-53
2021/12/14 04:21:58;;;;;;;;;16.75;16.25;;;;;9.05;73.12;102535.06;5028293;28;45715;-54
2021/12/14 04:24:29;;;;;;;;;26.25;21.75;;;;;9.05;72.62;102541.19;5024762;28;45379;-51
2021/12/14 04:26:56;;;;;;;;;21.50;18.00;;;;;9.07;73.20;102536.72;5026513;28;45820;-50
2021/12/14 04:29:22;;;;;;;;;21.00;14.50;;;;;9.12;72.76;102539.25;5030296;28;45505;-53
2021/12/14 04:31:50;;;;;;;;;23.00;19.75;;;;;9.11;73.20;102541.03;5028217;28;45585;-54
2021/12/14 04:34:19;;;;;;;;;22.00;16.75;;;;;9.12;73.15;102555.91;5028581;28;45499;-53
2021/12/14 04:36:50;;;;;;;;;24.50;17.50;;;;;9.09;72.74;102556.00;5024427;28;46104;-53
2021/12/14 04:39:34;;;;;;;;;22.50;19.00;;;;;9.05;72.78;102546.44;5026563;28;45383;-50
2021/12/14 04:53:10;;;;;;;;;19.75;16.75;;;;;9.01;72.89;102543.94;5026260;28;45767;-53
2021/12/14 04:55:41;;;;;;;;;10.00;10.00;;;;;8.97;73.30;102535.25;5028196;28;45491;-54
2021/12/14 04:58:06;;;;;;;;;21.75;17.50;;;;;8.95;73.42;102543.16;5023828;28;46016;-54
2021/12/14 05:00:39;;;;;;;;;20.75;17.00;;;;;8.94;72.82;102538.81;5025510;28;45602;-53
2021/12/14 05:03:15;;;;;;;;;23.25;16.25;;;;;8.92;73.28;102537.97;5021379;28;45549;-49
2021/12/14 05:05:48;;;;;;;;;17.00;16.00;;;;;8.88;73.01;102544.22;5028549;28;45673;-51
2021/12/14 05:10:56;;;;;;;;;16.75;13.00;;;;;8.78;73.03;102541.84;5025562;28;45510;-52
2021/12/14 05:13:28;;;;;;;;;20.00;14.75;;;;;8.74;73.21;102553.28;5026407;28;45633;-54
2021/12/14 05:15:54;;;;;;;;;15.75;13.00;;;;;8.74;73.38;102543.66;5028556;28;45501;-55
2021/12/14 05:18:20;;;;;;;;;13.00;13.00;;;;;8.73;73.01;102535.81;5027183;28;45312;-49
2021/12/14 05:20:48;;;;;;;;;18.00;13.00;;;;;8.73;73.39;102544.56;5027524;28;45383;-52
2021/12/14 05:23:26;;;;;;;;;19.25;15.50;;;;;8.74;73.74;102542.78;5026184;28;45538;-52
2021/12/14 05:25:52;;;;;;;;;21.25;14.25;;;;;8.72;73.47;102547.22;5023804;28;45832;-52
2021/12/14 05:28:19;;;;;;;;;17.75;17.25;;;;;8.68;73.42;102552.53;5028439;28;45581;-50
2021/12/14 05:30:47;;;;;;;;;16.50;13.25;;;;;8.65;73.64;102549.97;5024754;28;45409;-51
2021/12/14 05:33:19;;;;;;;;;7.50;3.75;;;;;8.63;73.54;102549.16;5029697;28;45654;-49
2021/12/14 05:35:48;;;;;;;;;18.50;15.00;;;;;8.64;73.63;102561.38;5028677;28;45353;-50
2021/12/14 05:38:20;;;;;;;;;19.25;14.75;;;;;8.59;73.67;102557.13;5029574;28;46270;-51
2021/12/14 05:43:27;;;;;;;;;13.25;11.25;;;;;8.56;74.01;102546.69;5030790;28;45532;-54
2021/12/14 05:45:57;;;;;;;;;15.00;12.25;;;;;8.57;73.56;102551.91;5028749;28;45629;-53
2021/12/14 05:48:29;;;;;;;;;19.75;15.50;;;;;8.53;73.66;102549.38;5028921;28;46495;-52
2021/12/14 05:50:59;;;;;;;;;22.75;20.25;;;;;8.50;73.95;102557.31;5030773;28;45404;-51
2021/12/14 05:53:31;;;;;;;;;15.25;15.25;;;;;8.50;73.99;102560.81;5028103;28;45453;-53
2021/12/14 05:56:01;;;;;;;;;16.50;12.50;;;;;8.53;74.01;102560.78;5030701;28;45387;-53
2021/12/14 05:58:27;;;;;;;;;17.25;13.25;;;;;8.52;73.77;102564.25;5027834;28;46220;-52
2021/12/14 06:01:02;;;;;;;;;23.75;17.50;;;;;8.47;73.91;102567.91;5045272;28;45698;-54
2021/12/14 06:03:31;;;;;;;;;35.75;23.00;;;;;8.44;73.92;102565.34;5028686;28;45482;-53
2021/12/14 06:05:58;;;;;;;;;18.00;14.75;;;;;8.48;73.89;102559.13;5029910;28;45558;-51
2021/12/14 06:08:28;;;;;;;;;22.00;17.25;;;;;8.51;73.70;102566.94;5027531;28;45496;-54
2021/12/14 06:10:54;;;;;;;;;24.50;19.25;;;;;8.48;73.35;102585.41;5028392;28;45539;-55
2021/12/14 06:13:20;;;;;;;;;14.50;13.00;;;;;8.46;73.86;102589.81;5027866;28;45641;-55
2021/12/14 06:15:47;;;;;;;;;22.00;16.50;;;;;8.40;73.75;102596.06;5030537;28;45423;-53
2021/12/14 06:18:22;;;;;;;;;25.25;17.00;;;;;8.41;73.83;102599.53;5027968;28;45487;-52
2021/12/14 06:20:48;;;;;;;;;12.75;11.00;;;;;8.43;73.59;102595.13;5023573;28;45611;-55
2021/12/14 06:23:14;;;;;;;;;18.50;13.50;;;;;8.46;73.59;102600.31;5030333;28;45483;-53
2021/12/14 06:25:39;;;;;;;;;29.00;16.50;;;;;8.47;74.00;102602.06;5030430;28;45726;-51
2021/12/14 06:28:05;;;;;;;;;21.50;16.00;;;;;8.49;73.73;102597.63;5030332;28;45528;-51
2021/12/14 06:30:37;;;;;;;;;19.25;17.25;;;;;8.54;73.78;102599.28;5028537;28;45707;-51
2021/12/14 06:33:07;;;;;;;;;21.25;17.25;;;;;8.59;73.45;102597.38;5032494;28;45240;-52
2021/12/14 06:35:38;;;;;;;;;26.00;18.00;;;;;8.61;73.40;102597.34;5023786;28;45465;-52
2021/12/14 06:40:53;;;;;;;;;21.50;16.75;;;;;8.60;73.56;102614.00;5020913;28;45690;-52
2021/12/14 06:43:23;;;;;;;;;16.50;15.50;;;;;8.56;73.70;102615.00;5019464;28;45368;-55
2021/12/14 06:45:55;;;;;;;;;21.75;18.00;;;;;8.56;73.45;102615.00;5023442;28;45427;-53
2021/12/14 06:48:27;;;;;;;;;16.50;13.50;;;;;8.59;73.44;102613.16;5010666;28;46215;-50
2021/12/14 06:51:15;;;;;;;;;20.00;16.75;;;;;8.59;73.58;102618.41;5020213;28;45386;-50
2021/12/14 06:53:42;;;;;;;;;18.25;14.00;;;;;8.59;73.55;102614.91;5010903;28;45331;-52
2021/12/14 06:56:10;;;;;;;;;14.50;12.00;;;;;8.60;73.40;102616.63;5030036;28;45213;-53
2021/12/14 06:58:56;;;;;;;;;20.75;12.00;;;;;8.59;73.03;102623.66;5031165;28;45919;-55
2021/12/14 07:01:28;;;;;;;;;17.00;14.75;;;;;8.62;73.35;102628.00;5020933;28;45539;-54
2021/12/14 07:03:57;;;;;;;;;17.25;15.75;;;;;8.64;73.75;102624.44;5014482;28;45577;-54
2021/12/14 07:06:47;;;;;;;;;18.50;14.75;;;;;8.66;73.44;102630.50;5001552;28;45325;-54
2021/12/14 07:09:16;;;;;;;;;37.75;31.75;;;;;8.70;73.41;102628.72;5000574;28;45344;-54
2021/12/14 07:11:47;;;;;;;;;21.75;20.00;;;;;8.72;73.17;102626.03;5015844;28;45379;-54
2021/12/14 07:14:33;;;;;;;;;22.25;18.50;;;;;8.71;73.16;102624.31;5013505;28;45411;-55
2021/12/14 07:17:07;;;;;;;;;26.00;19.25;;;;;8.70;73.28;102631.34;5021104;28;45494;-51
2021/12/14 07:19:53;;;;;;;;;20.75;14.25;;;;;8.72;73.22;102611.13;5021099;28;45420;-52
2021/12/14 07:22:31;;;;;;;;;20.75;19.50;;;;;8.73;73.24;102625.13;5021328;28;45372;-53
2021/12/14 07:25:16;;;;;;;;;26.25;22.00;;;;;8.74;73.58;102613.72;5009569;28;45288;-49
2021/12/14 07:27:48;;;;;;;;;26.50;19.25;;;;;8.78;73.20;102631.16;5020854;28;45386;-53
2021/12/14 07:30:14;;;;;;;;;26.00;18.25;;;;;8.78;73.46;102629.41;5021250;28;45472;-52
2021/12/14 07:33:09;;;;;;;;;27.25;20.75;;;;;8.82;72.94;102622.31;5020717;28;45505;-47
2021/12/14 07:35:35;;;;;;;;;25.25;21.75;;;;;8.81;73.33;102620.59;5021251;28;45437;-54
2021/12/14 07:38:29;;;;;;;;;25.75;19.50;;;;;8.83;72.88;102621.41;5021503;28;45391;-55
2021/12/14 07:41:16;;;;;;;;;23.50;18.75;;;;;8.85;73.47;102632.78;5007443;28;46354;-51
2021/12/14 07:44:04;;;;;;;;;28.50;21.00;;;;;8.87;73.07;102639.72;5021204;28;45386;-53
2021/12/14 07:46:47;;;;;;;;;29.50;25.00;;;;;8.88;73.06;102627.44;5021300;28;45251;-51
2021/12/14 07:49:30;;;;;;;;;21.75;16.50;;;;;8.90;73.34;102636.16;5020944;28;45479;-52
2021/12/14 07:52:07;;;;;;;;;30.25;21.25;;;;;8.91;73.23;102645.75;5020025;28;45596;-52
2021/12/14 07:54:41;;;;;;;;;34.25;24.50;;;;;8.92;73.20;102660.63;5022809;28;45561;-48
2021/12/14 07:57:29;;;;;;;;;34.25;26.00;;;;;8.92;73.02;102658.84;5025748;28;45485;-53
2021/12/14 07:59:56;;;;;;;;;35.00;26.75;;;;;8.98;72.85;102657.00;5025389;28;45418;-53
2021/12/14 08:02:27;;;;;;;;;19.25;14.50;;;;;9.00;72.71;102657.81;5028928;28;45607;-53
2021/12/14 08:04:59;;;;;;;;;30.50;23.75;;;;;9.01;72.79;102670.97;5028155;28;45372;-55
2021/12/14 08:07:43;;;;;;;;;43.75;35.50;;;;;9.01;72.86;102673.59;5026260;28;45418;-52
2021/12/14 08:10:25;;;;;;;;;32.25;26.00;;;;;9.02;72.90;102674.47;5021271;28;45487;-54
2021/12/14 08:12:58;;;;;;;;;26.50;24.75;;;;;9.03;72.56;102686.69;5026566;28;45364;-54
2021/12/14 08:15:36;;;;;;;;;35.75;28.25;;;;;9.06;73.05;102686.63;5027270;28;45386;-52
2021/12/14 08:18:08;;;;;;;;;26.75;23.75;;;;;9.07;72.74;102694.47;5024954;28;45245;-53
2021/12/14 08:20:36;;;;;;;;;24.25;21.75;;;;;9.09;72.33;102699.72;5027616;28;45626;-51
2021/12/14 08:23:26;;;;;;;;;26.50;22.75;;;;;9.04;72.18;102694.53;5023709;28;45279;-55
2021/12/14 08:26:16;;;;;;;;;26.75;25.50;;;;;9.00;72.47;102698.13;5028530;28;45477;-53
2021/12/14 08:28:52;;;;;;;;;32.00;26.75;;;;;9.02;72.46;102700.75;5020582;28;45309;-53
2021/12/14 08:31:21;;;;;;;;;35.00;21.00;;;;;9.05;72.51;102695.41;5020944;28;45447;-52
2021/12/14 08:33:59;;;;;;;;;20.00;19.75;;;;;9.09;72.72;102697.94;5040421;28;47839;-52
2021/12/14 08:36:34;;;;;;;;;43.50;37.00;;;;;9.10;72.58;102698.81;5021645;28;45310;-52
2021/12/14 08:39:12;;;;;;;;;28.75;23.25;;;;;9.13;72.58;102690.84;5019397;28;45452;-50
2021/12/14 08:41:47;;;;;;;;;32.75;25.75;;;;;9.11;72.25;102698.78;5001519;28;45539;-52
2021/12/14 08:44:20;;;;;;;;;31.50;22.25;;;;;9.15;72.40;102687.28;5001764;28;45447;-49
2021/12/14 08:46:47;;;;;;;;;28.75;19.50;;;;;9.18;72.62;102703.00;5012073;28;45278;-50
2021/12/14 08:49:15;;;;;;;;;32.50;23.50;;;;;9.19;72.24;102707.34;5002562;28;45572;-50
2021/12/14 08:51:44;;;;;;;;;53.50;37.50;;;;;9.22;72.26;102709.91;5002893;28;45320;-53
2021/12/14 08:54:15;;;;;;;;;51.75;36.25;;;;;9.28;72.28;102713.31;5020338;28;45309;-52
2021/12/14 08:57:00;;;;;;;;;27.00;22.75;;;;;9.29;72.20;102721.16;5019208;28;45522;-52
2021/12/14 08:59:27;;;;;;;;;35.75;34.25;;;;;9.29;72.05;102715.91;5019786;28;45366;-50
2021/12/14 09:01:54;;;;;;;;;43.25;36.25;;;;;9.33;71.90;102706.19;5012638;28;45416;-52
2021/12/14 09:04:29;;;;;;;;;34.75;29.25;;;;;9.35;72.24;102696.50;5034935;28;47894;-50
2021/12/14 09:07:00;;;;;;;;;36.00;31.25;;;;;9.36;72.10;102698.22;5020758;28;45289;-48
2021/12/14 09:09:26;;;;;;;;;49.50;34.25;;;;;9.39;72.15;102685.00;5023364;28;45458;-50
2021/12/14 09:12:02;;;;;;;;;34.50;23.50;;;;;9.42;72.04;102687.56;5011417;28;45382;-50
2021/12/14 09:14:28;;;;;;;;;31.50;23.25;;;;;9.41;72.07;102691.97;5008397;28;45439;-48
2021/12/14 09:16:57;;;;;;;;;28.50;24.50;;;;;9.43;71.67;102690.16;5002489;28;45368;-53
2021/12/14 09:19:31;;;;;;;;;24.00;19.00;;;;;9.45;72.00;102703.28;5001233;28;45580;-54
2021/12/14 09:21:59;;;;;;;;;35.25;30.25;;;;;9.47;71.83;102706.72;5002270;28;45576;-52
2021/12/14 09:24:27;;;;;;;;;45.25;38.25;;;;;9.48;71.34;102711.09;5020650;28;46002;-48
2021/12/14 09:26:59;;;;;;;;;44.75;37.00;;;;;9.50;71.42;102712.78;5037234;28;45477;-54
2021/12/14 09:29:27;;;;;;;;;21.50;19.75;;;;;9.54;71.61;102703.06;5022487;28;45417;-52
2021/12/14 09:31:55;;;;;;;;;28.50;22.50;;;;;9.56;71.57;102706.53;5022963;28;45427;-51
2021/12/14 09:34:23;;;;;;;;;43.25;37.00;;;;;9.58;71.69;102711.75;5022883;28;45372;-53
2021/12/14 09:36:51;;;;;;;;;34.50;28.00;;;;;9.58;71.46;102712.63;5023143;28;45353;-54
2021/12/14 09:39:31;;;;;;;;;58.50;49.25;;;;;9.62;71.37;102713.41;5023073;28;45269;-54
2021/12/14 09:42:00;;;;;;;;;37.00;31.25;;;;;9.66;71.46;102721.19;5023290;28;45179;-52
2021/12/14 09:44:29;;;;;;;;;27.50;24.00;;;;;9.65;71.35;102719.47;5023020;28;46356;-54
2021/12/14 09:46:59;;;;;;;;;40.75;34.00;;;;;9.66;70.95;102726.47;5020958;28;46536;-54
2021/12/14 09:49:26;;;;;;;;;37.50;32.50;;;;;9.68;71.62;102729.03;5002721;28;45331;-53
2021/12/14 09:51:59;;;;;;;;;37.50;32.00;;;;;9.72;70.80;102736.84;5003253;28;45362;-54
2021/12/14 09:54:26;;;;;;;;;35.75;29.75;;;;;9.74;71.23;102740.28;5012026;28;47912;-53
2021/12/14 09:57:01;;;;;;;;;34.75;29.25;;;;;9.78;70.86;102734.03;5022602;28;45364;-52
2021/12/14 09:59:27;;;;;;;;;30.75;23.00;;;;;9.78;70.84;102733.19;5015217;28;45369;-54
2021/12/14 10:02:25;;;;;;;;;28.25;23.50;;;;;9.82;70.95;102731.34;5015129;28;45325;-53
2021/12/14 10:04:58;;;;;;;;;33.75;27.00;;;;;9.87;70.68;102734.72;5018135;28;46216;-53
2021/12/14 10:07:25;;;;;;;;;31.50;25.50;;;;;9.90;70.98;102732.91;5022374;28;45229;-53
2021/12/14 10:09:55;;;;;;;;;26.00;23.75;;;;;9.93;70.43;102727.53;5020852;28;45245;-54
2021/12/14 10:15:10;;;;;;;;;28.75;25.25;;;;;9.97;70.85;102733.63;5022465;28;45451;-54
2021/12/14 10:17:39;;;;;;;;;36.50;26.50;;;;;9.97;70.51;102730.97;5022031;28;45190;-54
2021/12/14 10:20:06;;;;;;;;;29.50;23.50;;;;;10.01;70.60;102722.09;5022570;28;45455;-55
2021/12/14 10:22:32;;;;;;;;;42.50;35.75;;;;;10.04;70.35;102730.78;5022698;28;45379;-54
2021/12/14 10:25:00;;;;;;;;;29.50;25.75;;;;;10.07;70.21;102732.47;5022156;28;45388;-54
2021/12/14 10:27:30;;;;;;;;;29.50;26.00;;;;;10.12;70.24;102733.22;5022327;28;45162;-53
2021/12/14 10:29:59;;;;;;;;;25.50;23.50;;;;;10.17;69.91;102741.00;5022401;28;45297;-53
2021/12/14 10:32:31;;;;;;;;;32.25;25.00;;;;;10.16;70.21;102737.50;5022103;28;45155;-54
2021/12/14 10:35:01;;;;;;;;;34.75;31.75;;;;;10.20;70.20;102739.16;5021975;28;45546;-52
2021/12/14 10:37:54;;;;;;;;;42.00;34.00;;;;;10.27;70.30;102732.00;5021931;28;45241;-54
2021/12/14 10:43:20;;;;;;;;;23.25;22.50;;;;;10.44;69.41;102735.06;5022417;28;45274;-53
2021/12/14 10:45:53;;;;;;;;;38.50;33.25;;;;;10.43;69.43;102746.50;5021928;28;47040;-51
2021/12/14 10:48:22;;;;;;;;;27.75;26.25;;;;;10.42;68.79;102735.97;5021635;28;45395;-50
2021/12/14 10:50:52;;;;;;;;;27.25;24.00;;;;;10.42;69.33;102741.25;5022039;28;45376;-53
2021/12/14 10:53:20;;;;;;;;;32.00;25.75;;;;;10.45;69.13;102735.91;5022158;28;45474;-52
2021/12/14 10:55:59;;;;;;;;;31.50;25.75;;;;;10.44;68.85;102739.47;5021524;28;46259;-52
2021/12/14 10:58:26;;;;;;;;;34.25;29.50;;;;;10.47;69.48;102734.97;5008700;28;45319;-49
2021/12/14 11:01:15;;;;;;;;;27.50;26.25;;;;;10.49;69.23;102738.41;5021957;28;45406;-50
2021/12/14 11:03:47;;;;;;;;;29.75;25.25;;;;;10.53;69.13;102732.16;5021618;28;45471;-51
2021/12/14 11:06:16;;;;;;;;;30.00;24.25;;;;;10.58;69.37;102732.88;5021578;28;45257;-49
2021/12/14 11:09:38;;;;;;;;;35.50;28.50;;;;;10.62;69.30;102733.69;5021316;28;45366;-52
2021/12/14 11:11:43;;;;;;;;;31.00;28.00;;;;;10.62;68.65;102737.19;5010012;28;45284;-52
2021/12/14 11:14:13;;;;;;;;;27.75;22.75;;;;;10.58;69.07;102732.03;5021583;28;45402;-54
2021/12/14 11:20:13;;;;;;;;;25.75;23.50;;;;;10.60;68.54;102744.28;5022816;28;45311;-52
2021/12/14 11:22:50;;;;;;;;;26.50;21.00;;;;;10.61;68.75;102730.19;5021935;28;45317;-55
2021/12/14 11:25:27;;;;;;;;;27.50;19.25;;;;;10.59;68.27;102728.50;5021737;28;45272;-53
2021/12/14 11:28:07;;;;;;;;;25.50;22.25;;;;;10.62;68.45;102728.41;5021561;28;45466;-52
2021/12/14 11:30:41;;;;;;;;;30.50;24.00;;;;;10.63;68.61;102731.00;5020676;28;45406;-54
2021/12/14 11:33:21;;;;;;;;;32.25;26.25;;;;;10.64;68.67;102723.97;5021416;28;45362;-51
2021/12/14 11:35:59;;;;;;;;;28.75;26.25;;;;;10.70;68.37;102720.28;5021560;28;45234;-54
2021/12/14 11:38:33;;;;;;;;;32.00;21.75;;;;;10.76;68.02;102720.13;5021234;28;46399;-54
2021/12/14 11:41:19;;;;;;;;;44.75;31.25;;;;;10.78;68.41;102713.91;5021362;28;45387;-52
2021/12/14 11:44:04;;;;;;;;;35.00;29.50;;;;;10.78;68.49;102708.63;5021074;28;45284;-53
2021/12/14 11:46:32;;;;;;;;;28.00;20.25;;;;;10.82;68.12;102704.13;5021335;28;45353;-53
2021/12/14 11:49:02;;;;;;;;;36.00;28.25;;;;;10.81;68.40;102705.88;5020764;28;45418;-53
2021/12/14 11:51:30;;;;;;;;;23.75;15.00;;;;;10.82;68.03;102699.75;5020867;28;45169;-49
2021/12/14 11:54:00;;;;;;;;;32.25;26.50;;;;;10.81;68.73;102703.25;5021260;28;45342;-52
2021/12/14 11:56:29;;;;;;;;;35.00;26.25;;;;;10.82;68.31;102701.47;5020819;28;45233;-54
2021/12/14 11:59:04;;;;;;;;;30.75;27.00;;;;;10.84;67.93;102694.41;5020658;28;45407;-52
2021/12/14 12:01:34;;;;;;;;;30.50;24.00;;;;;10.87;68.17;102699.59;5020803;28;45335;-52
2021/12/14 12:04:05;;;;;;;;;38.00;29.00;;;;;10.85;68.24;102693.50;5020674;28;45168;-53
2021/12/14 12:09:28;;;;;;;;;40.25;32.50;;;;;10.82;68.39;102693.56;5020611;28;45408;-53
2021/12/14 12:09:40;;;;;;;;;34.00;27.00;;;;;10.81;68.22;102687.44;5020062;28;45240;-54
2021/12/14 12:12:06;;;;;;;;;38.75;28.25;;;;;10.80;68.27;102685.72;5019939;28;45363;-52
2021/12/14 12:14:40;;;;;;;;;40.50;35.00;;;;;10.79;67.98;102683.13;5020633;28;45254;-52
2021/12/14 12:17:34;;;;;;;;;35.50;32.00;;;;;10.82;67.94;102689.19;5020454;28;45167;-54
2021/12/14 12:20:20;;;;;;;;;45.25;31.75;;;;;10.87;68.46;102692.53;5020615;28;46004;-54